Time;durP1;ratioP1;P1;durP2;ratioP2;P2;SDS_P1;SDS_P2;PMS_P1;PMS_P2;Temp;Humidity;BMP_temperature;BMP_pressure;BME280_temperature;BME280_humidity;BME280_pressure;Samples;Min_cycle;Max_cycle;Signal;HPM_P1;HPM_P2
2022/02/08 00:01:07;;;;;;;1.65;1.20;;;5.70;99.90;;;;;;4998822;28;20419;-67
2022/02/08 00:03:33;;;;;;;2.00;1.50;;;5.60;99.90;;;;;;4985668;28;20113;-67
2022/02/08 00:08:27;;;;;;;1.02;0.80;;;5.50;99.90;;;;;;4984708;28;20034;-67
2022/02/08 00:10:53;;;;;;;1.75;1.25;;;5.50;99.90;;;;;;4982105;28;20105;-67
2022/02/08 00:13:18;;;;;;;1.10;0.90;;;5.60;99.90;;;;;;4995959;28;20033;-66
2022/02/08 00:15:44;;;;;;;4.88;1.08;;;5.70;99.90;;;;;;4988711;28;20384;-67
2022/02/08 00:18:09;;;;;;;1.48;1.23;;;5.70;99.90;;;;;;4985995;28;20030;-66
2022/02/08 00:20:35;;;;;;;2.28;1.30;;;5.80;99.90;;;;;;4982390;28;20064;-66
2022/02/08 00:23:01;;;;;;;1.30;0.90;;;5.70;99.90;;;;;;4983943;28;20030;-66
2022/02/08 00:25:26;;;;;;;1.73;1.13;;;5.80;99.90;;;;;;4984580;28;20030;-66
2022/02/08 00:27:52;;;;;;;3.03;1.40;;;5.80;99.90;;;;;;4983089;28;20030;-66
2022/02/08 00:30:17;;;;;;;2.15;1.20;;;5.80;99.90;;;;;;4981163;28;20389;-66
2022/02/08 00:32:43;;;;;;;1.80;1.17;;;5.90;99.90;;;;;;4983925;28;20026;-66
2022/02/08 00:35:08;;;;;;;5.18;1.40;;;5.90;99.90;;;;;;4986058;28;20033;-67
2022/02/08 00:37:34;;;;;;;1.58;1.08;;;5.90;99.90;;;;;;4998135;28;20030;-66
2022/02/08 00:40:00;;;;;;;0.52;0.52;;;5.90;99.90;;;;;;4980273;28;20035;-66
2022/02/08 00:42:26;;;;;;;0.68;0.68;;;6.00;99.90;;;;;;4986161;28;20084;-67
2022/02/08 00:45:05;;;;;;;2.35;0.98;;;6.00;99.90;;;;;;4989176;28;20109;-67
2022/02/08 00:47:35;;;;;;;7.13;1.10;;;6.00;99.90;;;;;;4983494;28;20023;-67
2022/02/08 00:50:08;;;;;;;;;;;6.00;99.90;;;;;;4984402;28;20025;-67
2022/02/08 00:52:37;;;;;;;7.65;1.63;;;6.00;99.90;;;;;;4983111;28;19912;-67
2022/02/08 00:55:05;;;;;;;2.95;1.35;;;6.00;99.90;;;;;;4986242;28;20032;-66
2022/02/08 00:57:31;;;;;;;9.30;1.20;;;6.00;99.90;;;;;;4987967;28;20073;-66
2022/02/08 00:59:56;;;;;;;5.30;1.60;;;6.00;99.90;;;;;;4986245;28;20414;-66
2022/02/08 01:02:22;;;;;;;4.32;1.50;;;6.00;99.90;;;;;;4985488;28;20038;-67
2022/02/08 01:04:53;;;;;;;3.90;1.63;;;5.90;99.90;;;;;;4983918;28;20058;-64
2022/02/08 01:07:19;;;;;;;2.15;1.25;;;5.90;99.90;;;;;;4986487;28;20449;-64
2022/02/08 01:09:51;;;;;;;2.50;0.98;;;5.80;99.90;;;;;;4982426;28;20035;-66
2022/02/08 01:12:17;;;;;;;2.47;1.50;;;5.80;99.90;;;;;;4981700;28;20505;-66
2022/02/08 01:14:45;;;;;;;4.72;1.98;;;5.80;99.90;;;;;;4986258;28;20026;-66
2022/02/08 01:17:11;;;;;;;9.70;1.88;;;5.80;99.90;;;;;;4983019;28;20022;-66
2022/02/08 01:19:45;;;;;;;3.15;1.83;;;5.70;99.90;;;;;;4989231;28;20018;-66
2022/02/08 01:22:11;;;;;;;13.63;1.65;;;5.70;99.90;;;;;;4984955;28;20098;-66
2022/02/08 01:28:08;;;;;;;2.00;1.52;;;5.60;99.90;;;;;;4987221;28;20033;-66
2022/02/08 01:30:46;;;;;;;3.30;1.08;;;5.50;99.90;;;;;;4986978;28;20808;-66
2022/02/08 01:33:19;;;;;;;2.38;1.25;;;5.40;99.90;;;;;;4977679;28;20019;-66
2022/02/08 01:36:10;;;;;;;3.13;1.23;;;5.40;99.90;;;;;;4989599;28;20026;-66
2022/02/08 01:38:37;;;;;;;1.42;0.90;;;5.40;99.90;;;;;;4991212;28;20038;-66
2022/02/08 01:46:50;;;;;;;1.60;0.90;;;5.30;99.90;;;;;;4986083;28;20104;-66
2022/02/08 01:49:55;;;;;;;6.38;1.30;;;5.30;99.90;;;;;;4985705;28;20026;-66
2022/02/08 01:52:04;;;;;;;2.22;1.17;;;5.40;99.90;;;;;;4985829;28;20483;-66
2022/02/08 01:54:30;;;;;;;8.18;1.52;;;5.40;99.90;;;;;;4984320;28;20027;-66
2022/02/08 01:56:56;;;;;;;3.50;1.73;;;5.50;99.90;;;;;;4989371;28;20116;-67
2022/02/08 01:59:23;;;;;;;1.60;1.15;;;5.40;99.90;;;;;;4987641;28;20048;-66
2022/02/08 02:01:49;;;;;;;3.58;1.65;;;5.40;99.90;;;;;;4984247;28;20026;-66
2022/02/08 02:04:14;;;;;;;3.17;1.33;;;5.30;99.90;;;;;;4984876;28;20035;-66
2022/02/08 02:06:41;;;;;;;3.75;1.92;;;5.30;99.90;;;;;;4986305;28;20038;-66
2022/02/08 02:09:07;;;;;;;6.20;2.20;;;5.30;99.90;;;;;;4988434;28;20022;-66
2022/02/08 02:11:33;;;;;;;1.55;1.10;;;5.30;99.90;;;;;;4985908;28;20073;-66
2022/02/08 02:13:59;;;;;;;4.18;1.85;;;5.30;99.90;;;;;;4989346;28;20023;-66
2022/02/08 02:19:03;;;;;;;10.50;2.28;;;5.30;99.90;;;;;;4986553;28;20033;-66
2022/02/08 02:21:29;;;;;;;3.30;1.60;;;5.30;99.90;;;;;;4985241;28;20766;-66
2022/02/08 02:23:55;;;;;;;2.60;1.30;;;5.30;99.90;;;;;;4987595;28;20031;-66
2022/02/08 02:26:21;;;;;;;6.65;2.47;;;5.40;99.90;;;;;;4985003;28;20042;-66
2022/02/08 02:28:47;;;;;;;6.18;2.08;;;5.40;99.90;;;;;;4985927;28;20639;-66
2022/02/08 02:31:12;;;;;;;3.28;1.67;;;5.40;99.90;;;;;;4987378;28;20054;-66
2022/02/08 02:33:38;;;;;;;9.90;1.88;;;5.40;99.90;;;;;;4983287;28;20034;-66
2022/02/08 02:36:06;;;;;;;2.22;1.65;;;5.40;99.90;;;;;;4982970;28;20544;-66
2022/02/08 02:38:32;;;;;;;2.15;1.35;;;5.40;99.90;;;;;;4987343;28;20118;-66
2022/02/08 02:40:57;;;;;;;4.65;1.75;;;5.40;99.90;;;;;;4977503;28;20121;-66
2022/02/08 02:43:28;;;;;;;6.10;2.00;;;5.50;99.90;;;;;;4984043;28;20052;-65
2022/02/08 02:45:53;;;;;;;;;;;5.50;99.90;;;;;;4986963;28;20093;-66
2022/02/08 02:48:19;;;;;;;2.08;1.55;;;5.50;99.90;;;;;;4983649;28;19913;-66
2022/02/08 02:50:51;;;;;;;2.83;1.17;;;5.60;99.90;;;;;;4984189;28;20065;-66
2022/02/08 02:53:16;;;;;;;5.03;1.50;;;5.60;99.90;;;;;;4985911;28;20049;-66
2022/02/08 02:55:42;;;;;;;11.98;2.80;;;5.60;99.90;;;;;;4982208;28;20031;-66
2022/02/08 02:58:09;;;;;;;8.40;2.28;;;5.70;99.90;;;;;;4986342;28;20039;-65
2022/02/08 03:00:42;;;;;;;1.65;1.00;;;5.70;99.90;;;;;;4983161;28;20061;-66
2022/02/08 03:17:29;;;;;;;3.42;1.58;;;5.80;99.90;;;;;;4983690;28;20025;-66
2022/02/08 03:19:46;;;;;;;5.05;1.88;;;5.90;99.90;;;;;;4980239;28;20109;-66
2022/02/08 03:22:12;;;;;;;2.40;1.25;;;5.90;99.90;;;;;;4986641;28;20026;-66
2022/02/08 03:24:37;;;;;;;3.33;1.98;;;5.90;99.90;;;;;;4984249;28;20480;-66
2022/02/08 03:27:03;;;;;;;1.17;1.08;;;5.90;99.90;;;;;;4986342;28;20129;-66
2022/02/08 03:29:29;;;;;;;4.47;1.35;;;5.90;99.90;;;;;;4982496;28;20023;-66
2022/02/08 03:31:54;;;;;;;2.25;1.00;;;5.90;99.90;;;;;;4985762;28;20102;-66
2022/02/08 03:34:20;;;;;;;5.38;1.85;;;5.90;99.90;;;;;;4989454;28;20478;-66
2022/02/08 03:36:45;;;;;;;4.97;1.70;;;5.90;99.90;;;;;;4983868;28;20113;-66
2022/02/08 03:39:22;;;;;;;4.32;1.67;;;5.90;99.90;;;;;;4983425;28;20042;-66
2022/02/08 03:41:52;;;;;;;2.53;1.42;;;5.90;99.90;;;;;;4983767;28;20065;-66
2022/02/08 03:44:21;;;;;;;;;;;5.90;99.90;;;;;;5000935;28;20037;-66
2022/02/08 03:46:47;;;;;;;1.25;0.85;;;5.90;99.90;;;;;;4990386;28;20280;-66
2022/02/08 03:49:13;;;;;;;1.92;1.15;;;6.00;99.90;;;;;;4986925;28;20022;-66
2022/02/08 03:51:55;;;;;;;1.50;0.75;;;6.00;99.90;;;;;;4981538;28;20038;-66
2022/02/08 03:54:20;;;;;;;0.88;0.80;;;6.00;99.90;;;;;;4984459;28;20034;-66
2022/02/08 03:56:46;;;;;;;2.33;1.70;;;6.00;99.90;;;;;;5001082;28;20022;-66
2022/02/08 03:59:13;;;;;;;5.30;1.35;;;6.10;99.90;;;;;;4984765;28;20080;-66
2022/02/08 04:06:45;;;;;;;3.60;1.33;;;6.10;99.90;;;;;;4985840;28;20051;-66
2022/02/08 04:09:11;;;;;;;3.92;1.65;;;6.10;99.90;;;;;;4984074;28;20109;-66
2022/02/08 04:11:50;;;;;;;2.92;1.67;;;6.20;99.90;;;;;;4982625;28;20094;-66
2022/02/08 04:14:30;;;;;;;2.58;1.30;;;6.20;99.90;;;;;;4984391;28;20054;-66
2022/02/08 04:17:01;;;;;;;2.28;1.15;;;6.20;99.90;;;;;;4986538;28;20101;-66
2022/02/08 04:19:36;;;;;;;2.45;1.35;;;6.20;99.90;;;;;;4985158;28;20034;-66
2022/02/08 04:40:57;;;;;;;1.42;0.93;;;6.40;99.90;;;;;;4984521;28;20089;-66
2022/02/08 04:43:33;;;;;;;5.45;1.55;;;6.50;99.90;;;;;;4983955;28;20032;-66
2022/02/08 04:46:15;;;;;;;7.15;2.30;;;6.50;99.90;;;;;;4985752;28;20022;-66
2022/02/08 04:51:44;;;;;;;4.25;2.05;;;6.50;99.90;;;;;;4978227;28;20137;-66
2022/02/08 04:54:26;;;;;;;5.65;3.03;;;6.50;99.90;;;;;;4980289;28;20029;-66
2022/02/08 04:59:38;;;;;;;4.82;1.45;;;6.60;99.90;;;;;;4983455;28;20033;-66
2022/02/08 05:27:29;;;;;;;7.68;3.67;;;7.00;99.90;;;;;;4999645;28;20394;-66
2022/02/08 05:36:04;;;;;;;6.43;2.85;;;7.00;99.90;;;;;;4996285;28;20041;-66
2022/02/08 05:43:41;;;;;;;8.10;2.58;;;7.10;99.90;;;;;;4997408;28;20115;-66
2022/02/08 05:48:41;;;;;;;7.20;2.70;;;7.20;99.90;;;;;;4994331;28;20538;-66
2022/02/08 05:51:14;;;;;;;3.65;1.77;;;7.20;99.90;;;;;;4998703;28;20053;-66
2022/02/08 05:56:05;;;;;;;9.02;2.35;;;7.30;99.90;;;;;;5004142;28;20026;-67
2022/02/08 05:58:31;;;;;;;9.55;2.70;;;7.30;99.90;;;;;;5004256;28;20041;-67
2022/02/08 06:00:57;;;;;;;5.15;3.03;;;7.30;99.90;;;;;;5000401;28;20025;-66
2022/02/08 06:03:23;;;;;;;3.50;1.88;;;7.40;99.90;;;;;;4992342;28;20418;-66
2022/02/08 06:05:50;;;;;;;7.63;3.53;;;7.40;99.90;;;;;;4996489;28;20045;-66
2022/02/08 06:08:15;;;;;;;6.32;2.95;;;7.40;99.90;;;;;;4994926;28;20061;-67
2022/02/08 06:10:49;;;;;;;5.50;2.80;;;7.40;99.90;;;;;;4993291;28;20156;-66
2022/02/08 06:13:16;;;;;;;8.48;2.83;;;7.40;99.90;;;;;;4997139;28;20077;-66
2022/02/08 06:15:43;;;;;;;5.80;1.98;;;7.40;99.90;;;;;;4991212;28;20084;-66
2022/02/08 06:18:09;;;;;;;3.42;1.83;;;7.50;99.90;;;;;;4984703;28;20034;-66
2022/02/08 06:20:34;;;;;;;4.95;2.35;;;7.50;99.90;;;;;;4994052;28;20505;-66
2022/02/08 06:23:03;;;;;;;5.28;1.77;;;7.50;99.90;;;;;;4996592;28;20157;-67
2022/02/08 06:25:29;;;;;;;6.13;2.28;;;7.50;99.90;;;;;;4999771;28;20022;-66
2022/02/08 06:27:55;;;;;;;12.07;2.85;;;7.50;99.90;;;;;;5000218;28;20029;-66
2022/02/08 06:30:22;;;;;;;4.97;2.25;;;7.60;99.90;;;;;;4997496;28;20065;-66
2022/02/08 06:32:50;;;;;;;4.38;1.55;;;7.60;99.90;;;;;;4988006;28;20149;-66
2022/02/08 06:35:21;;;;;;;2.95;1.58;;;7.60;99.90;;;;;;4988147;28;20624;-66
2022/02/08 06:37:47;;;;;;;4.93;2.08;;;7.60;99.90;;;;;;4990684;28;20039;-66
2022/02/08 06:40:13;;;;;;;6.70;2.50;;;7.60;99.90;;;;;;4989999;28;20030;-66
2022/02/08 06:42:41;;;;;;;8.80;2.53;;;7.60;99.90;;;;;;4987619;28;20037;-66
2022/02/08 06:45:08;;;;;;;6.80;2.78;;;7.60;99.90;;;;;;4996071;28;20101;-66
2022/02/08 06:47:35;;;;;;;5.78;2.35;;;7.70;99.90;;;;;;4986261;28;20037;-66
2022/02/08 06:50:00;;;;;;;4.13;1.85;;;7.70;99.90;;;;;;4988495;28;20130;-66
2022/02/08 06:52:26;;;;;;;2.83;1.75;;;7.70;99.90;;;;;;4999814;28;20093;-66
2022/02/08 06:54:52;;;;;;;7.03;3.03;;;7.70;99.90;;;;;;5003378;28;20394;-67
2022/02/08 06:57:18;;;;;;;1.90;1.20;;;7.70;99.90;;;;;;4989130;28;20023;-66
2022/02/08 06:59:50;;;;;;;3.95;1.88;;;7.70;99.90;;;;;;4987992;28;20467;-67
2022/02/08 07:02:16;;;;;;;5.88;2.30;;;7.70;99.90;;;;;;4991486;28;20019;-66
2022/02/08 07:04:42;;;;;;;4.10;1.35;;;7.70;99.90;;;;;;4991084;28;20038;-66
2022/02/08 07:07:12;;;;;;;3.60;1.77;;;7.70;99.90;;;;;;4990658;28;20454;-66
2022/02/08 07:09:40;;;;;;;5.72;2.15;;;7.70;99.90;;;;;;4984033;28;20027;-66
2022/02/08 07:12:08;;;;;;;7.78;2.80;;;7.70;99.90;;;;;;4992921;28;20486;-66
2022/02/08 07:14:34;;;;;;;4.20;1.80;;;7.60;99.90;;;;;;4986908;28;20030;-66
2022/02/08 07:16:59;;;;;;;3.70;1.70;;;7.70;99.90;;;;;;5001304;28;20018;-66
2022/02/08 07:19:25;;;;;;;4.93;2.10;;;7.70;99.90;;;;;;4997540;28;20030;-67
2022/02/08 07:21:52;;;;;;;7.13;2.05;;;7.70;99.90;;;;;;4991172;28;20077;-66
2022/02/08 07:24:18;;;;;;;8.68;1.48;;;7.70;99.90;;;;;;4999718;28;20029;-66
2022/02/08 07:26:46;;;;;;;2.47;1.35;;;7.80;99.90;;;;;;4999961;28;20021;-66
2022/02/08 07:29:12;;;;;;;2.05;1.58;;;7.80;99.90;;;;;;4997077;28;20022;-66
2022/02/08 07:31:47;;;;;;;5.75;2.03;;;7.80;99.90;;;;;;4992365;28;20026;-66
2022/02/08 07:34:19;;;;;;;3.33;1.42;;;7.80;99.90;;;;;;4992601;28;20109;-66
2022/02/08 07:36:54;;;;;;;4.18;1.42;;;7.80;99.90;;;;;;4993297;28;20019;-66
2022/02/08 07:42:05;;;;;;;3.90;1.73;;;7.80;99.90;;;;;;4988725;28;20594;-66
2022/02/08 07:44:30;;;;;;;4.85;2.20;;;7.90;99.90;;;;;;4986825;28;20089;-66
2022/02/08 07:46:56;;;;;;;2.40;1.58;;;7.90;99.90;;;;;;4985088;28;20494;-66
2022/02/08 07:49:22;;;;;;;2.15;1.25;;;7.90;99.90;;;;;;4985963;28;20034;-66
2022/02/08 07:51:47;;;;;;;4.28;1.92;;;7.90;99.90;;;;;;4988221;28;20395;-66
2022/02/08 07:54:13;;;;;;;4.38;1.70;;;7.90;99.90;;;;;;4994347;28;20030;-66
2022/02/08 07:56:38;;;;;;;2.78;1.80;;;7.90;99.90;;;;;;4985250;28;20043;-66
2022/02/08 07:59:04;;;;;;;5.88;2.17;;;8.00;99.90;;;;;;4988380;28;20488;-66
2022/02/08 08:01:30;;;;;;;2.20;1.20;;;8.00;99.90;;;;;;4988897;28;20061;-66
2022/02/08 08:03:56;;;;;;;2.55;1.27;;;8.00;99.90;;;;;;4991342;28;20022;-66
2022/02/08 08:06:22;;;;;;;8.88;2.45;;;8.10;99.90;;;;;;4989167;28;20039;-66
2022/02/08 08:08:48;;;;;;;6.88;2.88;;;8.10;99.90;;;;;;4994496;28;20376;-66
2022/02/08 08:11:18;;;;;;;5.95;1.92;;;8.10;99.90;;;;;;4988155;28;20072;-66
2022/02/08 08:13:59;;;;;;;4.97;1.63;;;8.10;99.90;;;;;;5004956;28;20112;-66
2022/02/08 08:19:25;;;;;;;5.65;2.13;;;8.20;99.90;;;;;;4986796;28;20019;-66
2022/02/08 08:21:51;;;;;;;6.50;2.35;;;8.10;99.90;;;;;;4988979;28;20141;-66
2022/02/08 08:24:17;;;;;;;3.45;1.58;;;8.20;99.90;;;;;;4988066;28;20038;-66
2022/02/08 08:26:44;;;;;;;4.32;1.65;;;8.20;99.90;;;;;;4989858;28;20027;-66
2022/02/08 08:29:10;;;;;;;7.00;2.42;;;8.30;99.90;;;;;;4990953;28;20030;-66
2022/02/08 08:31:35;;;;;;;8.02;2.42;;;8.30;99.90;;;;;;4994891;28;20432;-66
2022/02/08 08:34:01;;;;;;;4.20;1.40;;;8.30;99.90;;;;;;4988146;28;20049;-67
2022/02/08 08:36:29;;;;;;;2.53;1.10;;;8.30;99.90;;;;;;4987981;28;20038;-66
2022/02/08 08:38:55;;;;;;;3.60;1.73;;;8.40;99.90;;;;;;4985688;28;20042;-66
2022/02/08 08:41:32;;;;;;;7.65;2.28;;;8.40;99.90;;;;;;4992134;28;20364;-66
2022/02/08 08:51:57;;;;;;;5.35;1.88;;;8.40;99.90;;;;;;4989152;28;20032;-66
2022/02/08 08:54:24;;;;;;;8.82;2.10;;;8.50;99.90;;;;;;4986064;28;20101;-66
2022/02/08 08:56:51;;;;;;;13.88;4.43;;;8.50;99.90;;;;;;4986496;28;20112;-66
2022/02/08 08:59:18;;;;;;;8.05;3.00;;;8.50;99.90;;;;;;4993277;28;20026;-66
2022/02/08 09:01:45;;;;;;;7.28;3.05;;;8.50;99.90;;;;;;4991807;28;20030;-66
2022/02/08 09:04:11;;;;;;;5.45;1.85;;;8.60;99.90;;;;;;4986474;28;20133;-66
2022/02/08 09:06:38;;;;;;;14.30;3.20;;;8.50;99.90;;;;;;4990530;28;20038;-66
2022/02/08 09:09:11;;;;;;;13.52;3.53;;;8.50;99.90;;;;;;4988676;28;20057;-66
2022/02/08 09:14:15;;;;;;;4.72;2.15;;;8.60;99.90;;;;;;4985549;28;20027;-66
2022/02/08 09:16:49;;;;;;;12.20;4.75;;;8.60;99.90;;;;;;4989474;28;20080;-66
2022/02/08 09:30:04;;;;;;;9.68;2.35;;;8.80;99.90;;;;;;4987981;28;20100;-66
2022/02/08 09:35:09;;;;;;;6.07;2.25;;;8.90;99.90;;;;;;4980066;28;20027;-66
2022/02/08 09:37:35;;;;;;;8.65;3.60;;;9.00;99.90;;;;;;4988283;28;20026;-66
2022/02/08 09:40:03;;;;;;;9.70;3.78;;;9.00;99.90;;;;;;4983046;28;20034;-66
2022/02/08 09:42:28;;;;;;;4.10;1.80;;;9.00;99.90;;;;;;4985964;28;20394;-66
2022/02/08 09:44:55;;;;;;;4.55;1.98;;;9.10;99.90;;;;;;4980152;28;20029;-66
2022/02/08 09:47:32;;;;;;;6.22;2.65;;;9.10;99.90;;;;;;5006115;28;20042;-66
2022/02/08 09:50:06;;;;;;;9.05;2.67;;;9.10;99.90;;;;;;4986846;28;20106;-66
2022/02/08 09:52:32;;;;;;;6.90;2.15;;;9.10;99.90;;;;;;5004107;28;20026;-66
2022/02/08 09:54:58;;;;;;;11.40;3.22;;;9.20;99.90;;;;;;5012120;28;20076;-66
2022/02/08 09:57:23;;;;;;;4.85;2.13;;;9.10;99.90;;;;;;4994115;28;20026;-66
2022/02/08 09:59:49;;;;;;;14.48;3.50;;;9.20;99.90;;;;;;4995363;28;20030;-66
2022/02/08 10:02:20;;;;;;;11.88;3.58;;;9.20;99.90;;;;;;4994170;28;20026;-66
2022/02/08 10:04:45;;;;;;;5.18;2.45;;;9.20;99.90;;;;;;4992818;28;20522;-66
2022/02/08 10:07:14;;;;;;;7.60;2.97;;;9.30;99.90;;;;;;4990461;28;20103;-66
2022/02/08 10:09:39;;;;;;;5.38;2.63;;;9.30;99.90;;;;;;4986932;28;20595;-66
2022/02/08 10:12:07;;;;;;;7.15;2.58;;;9.30;99.90;;;;;;4992815;28;20036;-66
2022/02/08 10:18:54;;;;;;;7.82;2.95;;;9.30;99.90;;;;;;4990778;28;20108;-66
2022/02/08 10:22:49;;;;;;;7.43;2.63;;;9.50;99.90;;;;;;4989928;28;20031;-66
2022/02/08 10:25:27;;;;;;;7.75;2.17;;;9.50;99.90;;;;;;4990817;28;20029;-66
2022/02/08 10:28:10;;;;;;;12.32;2.25;;;9.50;99.90;;;;;;4993601;28;20449;-66
2022/02/08 10:38:47;;;;;;;7.55;2.35;;;9.60;99.90;;;;;;4989880;28;20045;-66
2022/02/08 10:41:23;;;;;;;9.15;2.55;;;9.60;99.90;;;;;;4983052;28;20031;-66
2022/02/08 10:44:02;;;;;;;5.60;2.72;;;9.60;99.90;;;;;;4985636;28;20517;-66
2022/02/08 10:46:28;;;;;;;5.28;2.15;;;9.80;99.90;;;;;;5002302;28;20026;-66
2022/02/08 10:49:05;;;;;;;5.75;2.38;;;9.90;99.90;;;;;;4984345;28;20394;-66
2022/02/08 10:51:35;;;;;;;7.60;2.88;;;9.90;99.90;;;;;;4987719;28;20030;-67
2022/02/08 10:54:08;;;;;;;4.30;1.80;;;10.00;99.90;;;;;;4990923;28;20117;-66
2022/02/08 10:56:37;;;;;;;5.03;2.28;;;10.00;99.90;;;;;;4988841;28;20439;-66
2022/02/08 10:59:20;;;;;;;4.53;2.08;;;10.00;99.90;;;;;;4992732;28;20101;-66
2022/02/08 11:01:58;;;;;;;3.80;1.58;;;10.00;99.90;;;;;;4985756;28;20061;-66
2022/02/08 11:04:52;;;;;;;3.35;1.15;;;10.00;99.90;;;;;;4988578;28;20038;-66
2022/02/08 11:10:31;;;;;;;4.00;1.77;;;10.00;99.90;;;;;;4991948;28;20037;-66
2022/02/08 11:13:14;;;;;;;10.23;2.85;;;10.00;99.90;;;;;;5024266;28;20425;-66
2022/02/08 11:15:55;;;;;;;6.35;2.78;;;10.20;99.90;;;;;;5025453;28;20030;-66
2022/02/08 11:21:02;;;;;;;9.98;1.75;;;10.10;99.90;;;;;;5028834;28;20087;-66
2022/02/08 11:23:35;;;;;;;4.63;1.88;;;10.10;99.90;;;;;;5023829;28;20114;-66
2022/02/08 11:26:02;;;;;;;8.27;2.55;;;10.30;99.90;;;;;;5021061;28;20053;-66
2022/02/08 11:28:44;;;;;;;2.08;0.88;;;10.20;99.90;;;;;;5022248;28;20122;-66
2022/02/08 11:33:54;;;;;;;4.85;1.65;;;10.30;99.90;;;;;;5022693;28;20045;-66
2022/02/08 11:39:39;;;;;;;5.85;2.22;;;10.20;99.90;;;;;;5023245;28;20048;-66
2022/02/08 11:56:00;;;;;;;3.63;1.58;;;10.10;99.90;;;;;;4982480;28;20049;-66
2022/02/08 11:58:39;;;;;;;8.98;3.20;;;10.10;99.90;;;;;;4981505;28;20022;-66
2022/02/08 12:01:15;;;;;;;6.22;1.63;;;10.10;99.90;;;;;;4984331;28;20364;-66
2022/02/08 12:04:10;;;;;;;7.82;2.30;;;10.10;99.90;;;;;;4985532;28;20034;-66
2022/02/08 12:06:51;;;;;;;4.35;1.60;;;10.10;99.90;;;;;;4982607;28;20042;-66
2022/02/08 12:29:27;;;;;;;2.05;1.08;;;10.30;99.90;;;;;;4981818;28;20085;-66
2022/02/08 12:34:04;;;;;;;3.42;1.50;;;10.40;99.90;;;;;;4982721;28;20035;-66
2022/02/08 12:36:45;;;;;;;2.80;1.30;;;10.50;99.90;;;;;;4984105;28;20505;-67
2022/02/08 12:50:57;;;;;;;2.15;1.20;;;10.40;99.90;;;;;;4980395;28;20143;-66
2022/02/08 12:56:28;;;;;;;2.63;1.10;;;10.40;99.90;;;;;;4985400;28;20402;-66
2022/02/08 13:02:00;;;;;;;1.63;1.02;;;10.60;99.90;;;;;;4984270;28;20026;-66
2022/02/08 14:01:43;;;;;;;2.55;1.05;;;10.80;99.90;;;;;;4985206;28;20092;-66
2022/02/08 14:25:33;;;;;;;2.45;1.00;;;10.50;99.90;;;;;;4986145;28;20486;-66
2022/02/08 14:30:58;;;;;;;2.90;1.13;;;10.60;99.90;;;;;;4986322;28;20130;-66
2022/02/08 14:36:11;;;;;;;1.00;0.82;;;10.50;99.90;;;;;;4988444;28;20069;-66
2022/02/08 14:58:18;;;;;;;0.98;0.70;;;10.30;99.90;;;;;;4986206;28;20042;-66
2022/02/08 15:08:27;;;;;;;1.98;1.25;;;10.20;99.90;;;;;;4982256;28;20091;-66
2022/02/08 15:11:01;;;;;;;4.88;0.95;;;10.30;99.90;;;;;;4983494;28;20125;-66
2022/02/08 15:13:27;;;;;;;4.97;1.27;;;10.30;99.90;;;;;;5000019;28;20030;-66
2022/02/08 15:16:06;;;;;;;4.05;1.58;;;10.30;99.90;;;;;;4982518;28;20030;-66
2022/02/08 15:18:33;;;;;;;2.55;1.23;;;10.30;99.90;;;;;;4986122;28;20032;-66
2022/02/08 15:21:00;;;;;;;1.63;0.88;;;10.30;99.90;;;;;;5005263;28;20486;-66
2022/02/08 15:23:27;;;;;;;2.08;0.90;;;10.30;99.90;;;;;;4986392;28;20042;-66
2022/02/08 15:25:56;;;;;;;1.70;0.90;;;10.20;99.90;;;;;;4989689;28;20018;-66
2022/02/08 15:28:25;;;;;;;12.10;1.48;;;10.30;99.90;;;;;;4983861;28;20027;-66
2022/02/08 15:30:55;;;;;;;1.83;0.90;;;10.20;99.90;;;;;;4988946;28;20752;-66
2022/02/08 15:33:21;;;;;;;4.53;1.08;;;10.20;99.90;;;;;;4984909;28;20126;-66
2022/02/08 15:35:47;;;;;;;3.00;0.93;;;10.20;99.90;;;;;;4985374;28;20036;-66
2022/02/08 15:38:13;;;;;;;1.30;0.82;;;10.20;99.90;;;;;;4987089;28;20113;-66
2022/02/08 15:40:39;;;;;;;4.82;1.10;;;10.20;99.90;;;;;;4981258;28;20030;-66
2022/02/08 15:43:04;;;;;;;4.60;1.13;;;10.20;99.90;;;;;;4987463;28;20106;-66
2022/02/08 15:45:37;;;;;;;3.22;1.30;;;10.20;99.90;;;;;;4980309;28;20031;-66
2022/02/08 15:48:07;;;;;;;3.75;1.17;;;10.20;99.90;;;;;;4984114;28;20019;-66
2022/02/08 15:55:47;;;;;;;3.50;1.23;;;10.20;99.90;;;;;;4990068;28;20019;-66
2022/02/08 16:17:08;;;;;;;3.05;1.20;;;10.10;99.90;;;;;;4994797;28;20546;-66
2022/02/08 16:30:32;;;;;;;2.65;1.50;;;10.00;99.90;;;;;;4990256;28;20483;-66
2022/02/08 16:59:31;;;;;;;1.73;0.80;;;10.00;99.90;;;;;;4988958;28;20451;-67
2022/02/08 17:02:00;;;;;;;0.60;0.60;;;10.00;99.90;;;;;;4991895;28;20037;-66
2022/02/08 17:04:26;;;;;;;5.38;1.35;;;10.00;99.90;;;;;;4989537;28;20042;-67
2022/02/08 17:06:52;;;;;;;5.13;1.45;;;10.00;99.90;;;;;;4984502;28;20078;-67
2022/02/08 17:09:37;;;;;;;2.88;1.33;;;9.90;99.90;;;;;;4979218;28;20034;-67
2022/02/08 17:12:15;;;;;;;1.55;1.00;;;10.00;99.90;;;;;;4984215;28;20050;-67
2022/02/08 17:47:19;;;;;;;3.47;1.30;;;9.90;99.90;;;;;;4982238;28;20080;-66
2022/02/08 17:49:44;;;;;;;3.65;1.58;;;9.90;99.90;;;;;;4977185;28;20459;-66
2022/02/08 17:52:10;;;;;;;2.67;1.27;;;9.80;99.90;;;;;;4981194;28;20094;-66
2022/02/08 17:54:37;;;;;;;4.13;1.52;;;9.90;99.90;;;;;;4978567;28;20517;-66
2022/02/08 17:57:03;;;;;;;1.67;0.90;;;9.80;99.90;;;;;;4975595;28;20104;-66
2022/02/08 17:59:29;;;;;;;1.20;0.82;;;9.90;99.90;;;;;;4983807;28;20030;-66
2022/02/08 18:01:55;;;;;;;6.03;1.65;;;9.80;99.90;;;;;;4979471;28;20049;-66
2022/02/08 18:04:21;;;;;;;6.50;1.65;;;9.80;99.90;;;;;;4980982;28;20038;-66
2022/02/08 18:06:47;;;;;;;2.25;1.33;;;9.80;99.90;;;;;;4982492;28;20038;-67
2022/02/08 18:09:19;;;;;;;2.40;0.98;;;9.80;99.90;;;;;;4978357;28;20415;-66
2022/02/08 18:11:45;;;;;;;2.22;1.15;;;9.80;99.90;;;;;;4979118;28;20125;-66
2022/02/08 18:14:15;;;;;;;6.80;2.00;;;9.80;99.90;;;;;;4983456;28;20030;-66
2022/02/08 18:16:41;;;;;;;6.25;1.98;;;9.70;99.90;;;;;;4970917;28;20031;-66
2022/02/08 18:19:14;;;;;;;5.72;2.15;;;9.70;99.90;;;;;;4981981;28;20027;-67
2022/02/08 18:21:49;;;;;;;9.48;2.15;;;9.70;99.90;;;;;;4987646;28;20057;-66
2022/02/08 18:24:31;;;;;;;5.65;2.15;;;9.80;99.90;;;;;;4999797;28;20031;-66
2022/02/08 18:27:26;;;;;;;7.93;1.77;;;9.80;99.90;;;;;;4990227;28;20080;-66
2022/02/08 19:08:46;;;;;;;2.22;1.08;;;9.80;99.90;;;;;;4981122;28;20096;-67
2022/02/08 19:15:40;;;;;;;2.10;1.30;;;9.70;99.90;;;;;;4995302;28;20033;-67
2022/02/08 19:20:38;;;;;;;5.85;2.03;;;9.70;99.90;;;;;;4986912;28;20049;-67
2022/02/08 19:23:03;;;;;;;5.72;2.25;;;9.70;99.90;;;;;;4991660;28;20018;-67
2022/02/08 19:25:29;;;;;;;2.95;1.30;;;9.70;99.90;;;;;;4983852;28;20493;-67
2022/02/08 19:27:55;;;;;;;7.20;1.73;;;9.70;99.90;;;;;;5002381;28;20017;-67
2022/02/08 19:30:21;;;;;;;6.25;1.33;;;9.70;99.90;;;;;;4980633;28;20026;-67
2022/02/08 19:32:47;;;;;;;5.03;1.42;;;9.70;99.90;;;;;;4986711;28;20832;-67
2022/02/08 19:35:15;;;;;;;3.53;1.48;;;9.70;99.90;;;;;;4998516;28;20469;-67
2022/02/08 19:37:43;;;;;;;5.15;1.75;;;9.70;99.90;;;;;;4997087;28;20034;-67
2022/02/08 19:40:09;;;;;;;5.30;1.50;;;9.70;99.90;;;;;;4993618;28;20027;-67
2022/02/08 19:42:35;;;;;;;5.95;1.85;;;9.70;99.90;;;;;;4993026;28;20041;-67
2022/02/08 19:45:11;;;;;;;4.90;1.75;;;9.70;99.90;;;;;;5000739;28;20147;-67
2022/02/08 19:47:37;;;;;;;3.13;1.67;;;9.70;99.90;;;;;;4988170;28;20089;-67
2022/02/08 19:50:04;;;;;;;4.80;1.88;;;9.70;99.90;;;;;;5000229;28;20030;-67
2022/02/08 19:52:31;;;;;;;5.85;2.25;;;9.70;99.90;;;;;;4983075;28;20054;-67
2022/02/08 19:55:44;;;;;;;4.10;1.60;;;9.70;99.90;;;;;;4988539;28;20038;-67
2022/02/08 19:57:49;;;;;;;5.68;2.03;;;9.70;99.90;;;;;;4989462;28;20061;-67
2022/02/08 20:00:20;;;;;;;11.30;2.17;;;9.70;99.90;;;;;;4986647;28;20029;-67
2022/02/08 20:02:50;;;;;;;5.25;2.05;;;9.70;99.90;;;;;;4984859;28;20038;-67
2022/02/08 20:05:16;;;;;;;2.55;1.20;;;9.70;99.90;;;;;;4987052;28;20030;-67
2022/02/08 20:07:43;;;;;;;3.47;1.63;;;9.70;99.90;;;;;;4989426;28;20050;-67
2022/02/08 20:10:10;;;;;;;4.60;1.85;;;9.70;99.90;;;;;;4980907;28;20651;-67
2022/02/08 20:12:35;;;;;;;10.07;2.08;;;9.60;99.90;;;;;;4989357;28;20030;-67
2022/02/08 20:15:03;;;;;;;1.65;1.00;;;9.60;99.90;;;;;;4994513;28;20068;-67
2022/02/08 20:17:30;;;;;;;1.92;1.00;;;9.60;99.90;;;;;;4990566;28;20026;-67
2022/02/08 20:19:57;;;;;;;5.65;2.30;;;9.60;99.90;;;;;;4987931;28;20034;-68
2022/02/08 20:22:23;;;;;;;1.85;0.88;;;9.60;99.90;;;;;;4987806;28;20122;-67
2022/02/08 20:24:51;;;;;;;1.42;0.98;;;9.60;99.90;;;;;;4985342;28;20018;-67
2022/02/08 20:29:57;;;;;;;11.77;1.42;;;9.60;99.90;;;;;;4987131;28;20057;-67
2022/02/08 20:32:23;;;;;;;4.32;1.75;;;9.60;99.90;;;;;;4990851;28;20060;-67
2022/02/08 20:34:48;;;;;;;3.22;1.55;;;9.60;99.90;;;;;;4985740;28;20030;-67
2022/02/08 20:37:14;;;;;;;5.13;1.50;;;9.60;99.90;;;;;;4991519;28;20022;-67
2022/02/08 20:39:39;;;;;;;3.20;1.40;;;9.60;99.90;;;;;;5009873;28;20042;-67
2022/02/08 20:42:06;;;;;;;3.08;1.30;;;9.60;99.90;;;;;;4993867;28;20026;-67
2022/02/08 20:44:35;;;;;;;2.97;1.45;;;9.50;99.90;;;;;;4989634;28;20025;-67
2022/02/08 20:47:06;;;;;;;3.65;1.25;;;9.50;99.90;;;;;;4989800;28;20019;-67